createdAt,value
2019-05-18T00:00:52.907Z,38.95
2019-05-18T00:03:25.772Z,36.77
2019-05-18T00:05:58.677Z,35.08
2019-05-18T00:08:31.476Z,31.50
2019-05-18T00:11:04.504Z,38.20
2019-05-18T00:13:37.315Z,35.33
2019-05-18T00:16:10.122Z,28.47
2019-05-18T00:18:42.940Z,29.82
2019-05-18T00:21:15.887Z,36.77
2019-05-18T00:23:48.755Z,32.10
2019-05-18T00:26:21.701Z,33.23
2019-05-18T00:28:54.845Z,35.98
2019-05-18T00:31:27.730Z,37.05
2019-05-18T00:34:00.592Z,36.35
2019-05-18T00:36:33.511Z,30.30
2019-05-18T00:39:07.692Z,25.90
2019-05-18T00:41:40.527Z,31.97
2019-05-18T00:44:13.332Z,33.75
2019-05-18T00:46:46.267Z,32.40
2019-05-18T00:49:19.159Z,33.70
2019-05-18T00:51:52.071Z,40.58
2019-05-18T00:54:24.925Z,38.55
2019-05-18T00:56:57.775Z,30.50
2019-05-18T00:59:30.653Z,27.55
2019-05-18T01:02:03.458Z,34.88
2019-05-18T01:04:36.390Z,34.90
2019-05-18T01:07:09.253Z,35.75
2019-05-18T01:09:42.250Z,36.65
2019-05-18T01:12:15.226Z,36.15
2019-05-18T01:14:49.223Z,28.23
2019-05-18T01:17:23.531Z,29.52
2019-05-18T01:19:56.732Z,32.63
2019-05-18T01:22:31.182Z,34.60
2019-05-18T01:25:04.330Z,35.45
2019-05-18T01:27:38.346Z,37.25
2019-05-18T01:30:11.695Z,36.23
2019-05-18T01:32:44.612Z,34.50
2019-05-18T01:35:17.929Z,26.80
2019-05-18T01:37:50.755Z,31.57
2019-05-18T01:40:23.650Z,33.15
2019-05-18T01:42:56.538Z,33.88
2019-05-18T01:45:30.336Z,32.48
2019-05-18T01:48:13.357Z,36.40
2019-05-18T01:50:37.663Z,35.95
2019-05-18T01:53:11.509Z,32.88
2019-05-18T01:55:44.380Z,28.30
2019-05-18T01:58:17.462Z,31.55
2019-05-18T02:00:51.331Z,29.20
2019-05-18T02:03:25.963Z,28.60
2019-05-18T02:05:58.722Z,33.60
2019-05-18T02:08:31.550Z,33.38
2019-05-18T02:11:04.418Z,27.82
2019-05-18T02:13:37.382Z,27.55
2019-05-18T02:16:10.161Z,29.27
2019-05-18T02:18:42.954Z,31.10
2019-05-18T02:21:15.789Z,33.58
2019-05-18T02:23:48.769Z,35.65
2019-05-18T02:26:21.609Z,34.83
2019-05-18T02:28:54.516Z,34.90
2019-05-18T02:31:27.332Z,25.72
2019-05-18T02:34:00.133Z,27.52
2019-05-18T02:36:33.086Z,31.37
2019-05-18T02:39:07.725Z,31.77
2019-05-18T02:41:40.505Z,35.35
2019-05-18T02:44:13.320Z,33.23
2019-05-18T02:46:46.137Z,33.95
2019-05-18T02:49:19.036Z,26.02
2019-05-18T02:51:51.835Z,21.35
2019-05-18T02:54:24.657Z,30.35
2019-05-18T02:56:57.536Z,29.92
2019-05-18T02:59:30.341Z,34.92
2019-05-18T03:02:03.125Z,37.42
2019-05-18T03:04:36.663Z,35.73
2019-05-18T03:07:09.465Z,33.35
2019-05-18T03:09:42.391Z,25.10
2019-05-18T03:12:15.221Z,27.15
2019-05-18T03:14:48.182Z,28.75
2019-05-18T03:17:21.001Z,28.92
2019-05-18T03:19:54.095Z,34.40
2019-05-18T03:22:26.995Z,30.25
2019-05-18T03:24:59.882Z,33.08
2019-05-18T03:27:32.831Z,27.37
2019-05-18T03:30:05.833Z,24.25
2019-05-18T03:32:38.740Z,29.32
2019-05-18T03:35:12.255Z,28.92
2019-05-18T03:37:45.076Z,30.27
2019-05-18T03:40:18.111Z,31.62
2019-05-18T03:42:50.929Z,31.48
2019-05-18T03:45:23.734Z,31.45
2019-05-18T03:47:56.659Z,25.20
2019-05-18T03:50:29.569Z,24.90
2019-05-18T03:53:02.456Z,29.55
2019-05-18T03:55:36.454Z,30.30
2019-05-18T03:58:09.252Z,30.95
2019-05-18T04:00:42.301Z,35.98
2019-05-18T04:03:15.197Z,35.90
2019-05-18T04:05:48.080Z,25.92
2019-05-18T04:08:21.014Z,22.95
2019-05-18T04:10:54.734Z,29.72
2019-05-18T04:13:27.724Z,28.83
2019-05-18T04:16:00.719Z,30.02
2019-05-18T04:18:33.717Z,33.65
2019-05-18T04:21:09.980Z,30.32
2019-05-18T04:23:42.951Z,23.05
2019-05-18T04:26:15.922Z,22.20
2019-05-18T04:28:48.969Z,24.37
2019-05-18T04:31:21.978Z,26.80
2019-05-18T04:33:54.787Z,26.50
2019-05-18T04:36:27.779Z,28.47
2019-05-18T04:39:00.705Z,29.40
2019-05-18T04:41:33.765Z,21.45
2019-05-18T04:44:10.312Z,21.85
2019-05-18T04:46:43.297Z,27.42
2019-05-18T04:49:25.960Z,23.38
2019-05-18T04:51:59.974Z,26.30
2019-05-18T04:54:35.611Z,24.82
2019-05-18T04:57:08.987Z,28.98
2019-05-18T04:59:42.857Z,27.00
2019-05-18T05:02:15.709Z,25.57
2019-05-18T05:04:52.652Z,27.02
2019-05-18T05:07:24.799Z,23.40
2019-05-18T05:09:58.319Z,25.20
2019-05-18T05:12:31.241Z,23.57
2019-05-18T05:15:06.977Z,22.87
2019-05-18T05:17:40.018Z,26.80
2019-05-18T05:20:19.698Z,29.20
2019-05-18T05:22:52.269Z,21.40
2019-05-18T05:25:25.321Z,24.72
2019-05-18T05:27:59.268Z,23.70
2019-05-18T05:30:32.562Z,19.87
2019-05-18T05:33:05.384Z,22.37
2019-05-18T05:35:38.293Z,23.38
2019-05-18T05:38:12.171Z,27.13
2019-05-18T05:40:45.609Z,25.72
2019-05-18T05:43:19.212Z,24.05
2019-05-18T05:45:52.537Z,26.12
2019-05-18T05:48:25.513Z,19.82
2019-05-18T05:50:58.581Z,21.77
2019-05-18T05:53:31.383Z,22.45
2019-05-18T05:56:04.956Z,19.98
2019-05-18T05:58:37.853Z,17.37
2019-05-18T06:01:10.861Z,16.80
2019-05-18T06:03:43.764Z,21.45
2019-05-18T06:06:16.727Z,19.90
2019-05-18T06:08:49.771Z,17.60
2019-05-18T06:11:22.694Z,19.25
2019-05-18T06:13:55.669Z,19.92
2019-05-18T06:16:28.628Z,18.60
2019-05-18T06:19:01.666Z,18.62
2019-05-18T06:21:34.978Z,17.75
2019-05-18T06:24:07.944Z,16.62
2019-05-18T06:26:40.836Z,17.45
2019-05-18T06:29:13.827Z,16.57
2019-05-18T06:31:46.796Z,16.90
2019-05-18T06:34:19.957Z,18.07
2019-05-18T06:36:55.843Z,17.57
2019-05-18T06:39:27.354Z,15.80
2019-05-18T06:42:00.213Z,16.32
2019-05-18T06:44:33.100Z,14.58
2019-05-18T06:47:07.103Z,14.55
2019-05-18T06:49:39.999Z,15.38
2019-05-18T06:52:12.924Z,16.00
2019-05-18T06:54:45.980Z,11.70
2019-05-18T06:57:19.503Z,15.88
2019-05-18T06:59:53.239Z,14.55
2019-05-18T07:02:26.150Z,12.60
2019-05-18T07:04:58.990Z,13.90
2019-05-18T07:07:32.172Z,13.22
2019-05-18T07:10:05.193Z,14.75
2019-05-18T07:12:38.343Z,16.85
2019-05-18T07:15:12.102Z,15.23
2019-05-18T07:17:45.129Z,13.78
2019-05-18T07:20:18.770Z,12.45
2019-05-18T07:22:52.500Z,17.32
2019-05-18T07:25:26.616Z,13.95
2019-05-18T07:27:59.513Z,15.13
2019-05-18T07:30:32.354Z,15.43
2019-05-18T07:33:05.269Z,14.65
2019-05-18T07:35:38.153Z,12.03
2019-05-18T07:38:11.034Z,16.15
2019-05-18T07:40:44.121Z,15.10
2019-05-18T07:43:17.069Z,16.60
2019-05-18T07:45:49.880Z,14.33
2019-05-18T07:48:22.727Z,15.08
2019-05-18T07:50:55.604Z,15.18
2019-05-18T07:53:28.439Z,13.30
2019-05-18T07:56:01.339Z,14.13
2019-05-18T07:58:36.201Z,16.00
2019-05-18T08:01:09.002Z,15.20
2019-05-18T08:03:41.842Z,16.45
2019-05-18T08:06:14.650Z,16.17
2019-05-18T08:08:47.492Z,13.08
2019-05-18T08:11:20.457Z,16.37
2019-05-18T08:13:53.371Z,13.95
2019-05-18T08:16:26.249Z,12.47
2019-05-18T08:18:59.202Z,11.65
2019-05-18T08:21:32.023Z,12.63
2019-05-18T08:24:04.884Z,10.75
2019-05-18T08:26:37.849Z,12.35
2019-05-18T08:29:11.832Z,10.53
2019-05-18T08:31:44.722Z,11.05
2019-05-18T08:34:17.522Z,10.95
2019-05-18T08:36:50.413Z,13.15
2019-05-18T08:39:23.284Z,11.15
2019-05-18T08:41:56.350Z,11.28
2019-05-18T08:44:29.320Z,10.30
2019-05-18T08:47:02.514Z,8.63
2019-05-18T08:49:35.577Z,10.65
2019-05-18T08:52:08.899Z,10.23
2019-05-18T08:54:41.906Z,13.90
2019-05-18T08:57:14.894Z,12.13
2019-05-18T08:59:47.816Z,11.15
2019-05-18T09:02:20.750Z,9.75
2019-05-18T09:04:53.621Z,11.48
2019-05-18T09:07:26.588Z,10.25
2019-05-18T09:09:59.439Z,12.20
2019-05-18T09:12:32.463Z,13.10
2019-05-18T09:15:06.990Z,14.23
2019-05-18T09:17:40.266Z,14.18
2019-05-18T09:20:14.451Z,12.37
2019-05-18T09:22:47.415Z,12.23
2019-05-18T09:25:21.456Z,12.88
2019-05-18T09:27:54.478Z,12.10
2019-05-18T09:30:27.466Z,10.72
2019-05-18T09:33:00.449Z,9.40
2019-05-18T09:35:33.322Z,9.20
2019-05-18T09:38:06.206Z,9.95
2019-05-18T09:40:39.061Z,11.15
2019-05-18T09:43:11.862Z,10.55
2019-05-18T09:45:44.714Z,9.48
2019-05-18T09:48:17.969Z,10.10
2019-05-18T09:50:57.263Z,11.05
2019-05-18T09:53:31.289Z,9.43
2019-05-18T09:56:04.244Z,9.00
2019-05-18T09:58:37.107Z,15.38
2019-05-18T10:01:09.916Z,15.53
2019-05-18T10:03:42.776Z,15.32
2019-05-18T10:06:16.077Z,16.65
2019-05-18T10:08:49.081Z,14.43
2019-05-18T10:11:23.094Z,14.43
2019-05-18T10:13:56.035Z,14.75
2019-05-18T10:16:28.829Z,15.13
2019-05-18T10:19:01.768Z,15.48
2019-05-18T10:21:34.682Z,13.72
2019-05-18T10:24:07.521Z,13.88
2019-05-18T10:26:40.352Z,11.00
2019-05-18T10:29:13.175Z,12.88
2019-05-18T10:31:46.084Z,13.75
2019-05-18T10:34:18.991Z,16.20
2019-05-18T10:36:51.946Z,14.45
2019-05-18T10:39:24.845Z,13.30
2019-05-18T10:41:57.756Z,14.38
2019-05-18T10:44:30.651Z,14.53
2019-05-18T10:47:03.470Z,13.15
2019-05-18T10:49:36.255Z,13.48
2019-05-18T10:52:09.560Z,13.28
2019-05-18T10:54:42.459Z,14.13
2019-05-18T10:57:15.442Z,14.83
2019-05-18T10:59:48.386Z,13.48
2019-05-18T11:02:21.434Z,13.43
2019-05-18T11:04:54.366Z,12.85
2019-05-18T11:07:29.044Z,13.98
2019-05-18T11:10:02.362Z,12.23
2019-05-18T11:12:35.397Z,12.20
2019-05-18T11:15:09.745Z,10.60
2019-05-18T11:17:42.699Z,10.68
2019-05-18T11:20:17.837Z,9.53
2019-05-18T11:22:50.761Z,9.30
2019-05-18T11:25:23.825Z,8.03
2019-05-18T11:27:56.688Z,8.58
2019-05-18T11:30:29.632Z,8.65
2019-05-18T11:33:02.564Z,9.78
2019-05-18T11:35:35.542Z,7.78
2019-05-18T11:38:08.386Z,8.58
2019-05-18T11:40:41.225Z,8.68
2019-05-18T11:43:14.302Z,8.53
2019-05-18T11:45:47.447Z,7.47
2019-05-18T11:48:20.233Z,7.33
2019-05-18T11:50:53.218Z,5.03
2019-05-18T11:53:26.159Z,5.25
2019-05-18T11:55:58.966Z,5.22
2019-05-18T11:58:31.824Z,5.00
2019-05-18T12:01:04.686Z,4.60
2019-05-18T12:03:37.596Z,5.30
2019-05-18T12:06:10.739Z,5.22
2019-05-18T12:08:43.510Z,5.10
2019-05-18T12:11:16.340Z,5.35
2019-05-18T12:13:49.277Z,5.22
2019-05-18T12:16:22.137Z,5.05
2019-05-18T12:18:57.523Z,5.50
2019-05-18T12:21:30.288Z,4.37
2019-05-18T12:24:14.813Z,4.30
2019-05-18T12:26:37.790Z,3.77
2019-05-18T12:29:10.576Z,3.85
2019-05-18T12:31:43.445Z,4.03
2019-05-18T12:34:16.306Z,4.72
2019-05-18T12:36:49.199Z,4.10
2019-05-18T12:39:22.086Z,4.55
2019-05-18T12:41:54.967Z,4.72
2019-05-18T12:44:27.826Z,5.20
2019-05-18T12:47:00.667Z,4.80
2019-05-18T12:49:33.619Z,4.85
2019-05-18T12:52:06.609Z,4.33
2019-05-18T12:54:46.491Z,4.53
2019-05-18T12:57:14.376Z,4.55
2019-05-18T12:59:47.241Z,4.25
2019-05-18T13:02:20.184Z,5.20
2019-05-18T13:04:54.067Z,4.42
2019-05-18T13:07:26.997Z,4.42
2019-05-18T13:09:59.890Z,4.83
2019-05-18T13:12:32.761Z,4.65
2019-05-18T13:15:06.856Z,4.37
2019-05-18T13:17:39.759Z,4.37
2019-05-18T13:20:13.269Z,4.58
2019-05-18T13:22:48.275Z,5.40
2019-05-18T13:25:21.791Z,4.53
2019-05-18T13:27:54.764Z,3.67
2019-05-18T13:30:27.819Z,4.42
2019-05-18T13:33:00.783Z,3.92
2019-05-18T13:35:33.959Z,3.27
2019-05-18T13:38:06.900Z,3.85
2019-05-18T13:40:42.847Z,3.87
2019-05-18T13:43:15.930Z,3.98
2019-05-18T13:45:48.910Z,4.40
2019-05-18T13:48:21.805Z,3.75
2019-05-18T13:50:54.608Z,4.62
2019-05-18T13:53:27.592Z,4.83
2019-05-18T13:56:00.591Z,4.00
2019-05-18T13:58:33.511Z,4.15
2019-05-18T14:01:06.791Z,4.87
2019-05-18T14:03:40.078Z,3.77
2019-05-18T14:06:13.429Z,3.55
2019-05-18T14:08:47.048Z,3.62
2019-05-18T14:11:21.734Z,4.03
2019-05-18T14:13:54.722Z,4.03
2019-05-18T14:16:29.657Z,4.90
2019-05-18T14:19:02.605Z,3.83
2019-05-18T14:21:35.525Z,3.98
2019-05-18T14:24:08.414Z,4.05
2019-05-18T14:26:41.254Z,4.55
2019-05-18T14:29:14.265Z,4.65
2019-05-18T14:31:47.260Z,3.95
2019-05-18T14:34:20.058Z,4.28
2019-05-18T14:36:52.927Z,4.00
2019-05-18T14:39:26.240Z,4.20
2019-05-18T14:41:59.116Z,4.50
2019-05-18T14:44:32.110Z,4.45
2019-05-18T14:47:05.297Z,4.10
2019-05-18T14:49:38.215Z,4.10
2019-05-18T14:52:12.180Z,4.50
2019-05-18T14:54:45.529Z,4.40
2019-05-18T14:57:18.502Z,4.08
2019-05-18T14:59:51.490Z,3.83
2019-05-18T15:02:24.420Z,3.70
2019-05-18T15:04:57.259Z,3.98
2019-05-18T15:07:30.216Z,3.80
2019-05-18T15:10:03.049Z,4.15
2019-05-18T15:12:36.277Z,4.28
2019-05-18T15:15:10.303Z,3.52
2019-05-18T15:17:44.079Z,4.15
2019-05-18T15:20:18.372Z,3.85
2019-05-18T15:22:51.325Z,3.70
2019-05-18T15:25:24.291Z,3.77
2019-05-18T15:27:57.287Z,4.37
2019-05-18T15:30:30.124Z,4.28
2019-05-18T15:33:02.987Z,4.50
2019-05-18T15:35:36.183Z,4.20
2019-05-18T15:38:09.105Z,4.20
2019-05-18T15:40:41.967Z,4.53
2019-05-18T15:43:14.917Z,4.40
2019-05-18T15:45:47.781Z,4.00
2019-05-18T15:48:20.753Z,4.20
2019-05-18T15:50:53.675Z,3.85
2019-05-18T15:53:26.474Z,4.22
2019-05-18T15:56:05.806Z,4.78
2019-05-18T15:58:34.119Z,4.05
2019-05-18T16:01:07.015Z,3.98
2019-05-18T16:03:40.277Z,3.98
2019-05-18T16:06:13.164Z,4.00
2019-05-18T16:08:46.054Z,3.85
2019-05-18T16:11:18.934Z,4.20
2019-05-18T16:13:51.833Z,4.05
2019-05-18T16:16:24.694Z,4.83
2019-05-18T16:18:57.693Z,3.98
2019-05-18T16:21:30.584Z,4.03
2019-05-18T16:24:03.520Z,3.98
2019-05-18T16:26:36.510Z,4.60
2019-05-18T16:29:09.361Z,4.50
2019-05-18T16:31:42.163Z,4.37
2019-05-18T16:34:16.101Z,4.47
2019-05-18T16:36:48.993Z,5.00
2019-05-18T16:39:21.820Z,4.03
2019-05-18T16:41:54.702Z,3.98
2019-05-18T16:44:27.532Z,3.30
2019-05-18T16:47:00.390Z,5.15
2019-05-18T16:49:33.250Z,4.60
2019-05-18T16:52:06.140Z,5.03
2019-05-18T16:54:39.257Z,4.67
2019-05-18T16:57:12.078Z,6.03
2019-05-18T16:59:45.006Z,5.17
2019-05-18T17:02:30.653Z,5.28
2019-05-18T17:04:52.520Z,4.40
2019-05-18T17:07:25.490Z,5.58
2019-05-18T17:09:58.407Z,4.72
2019-05-18T17:12:31.205Z,4.85
2019-05-18T17:15:04.147Z,4.75
2019-05-18T17:17:37.007Z,4.35
2019-05-18T17:20:11.737Z,4.50
2019-05-18T17:22:44.585Z,4.30
2019-05-18T17:25:17.983Z,4.33
2019-05-18T17:27:50.794Z,4.35
2019-05-18T17:30:23.689Z,5.47
2019-05-18T17:32:57.186Z,4.72
2019-05-18T17:35:30.025Z,5.00
2019-05-18T17:38:02.810Z,5.45
2019-05-18T17:40:35.641Z,4.90
2019-05-18T17:43:08.636Z,5.25
2019-05-18T17:45:41.588Z,5.22
2019-05-18T17:48:14.699Z,5.35
2019-05-18T17:50:47.840Z,5.25
2019-05-18T17:53:20.876Z,4.97
2019-05-18T17:55:53.776Z,4.53
2019-05-18T17:58:26.760Z,3.90
2019-05-18T18:00:59.608Z,4.42
2019-05-18T18:03:32.877Z,4.12
2019-05-18T18:06:05.969Z,4.95
2019-05-18T18:08:38.902Z,5.42
2019-05-18T18:11:12.091Z,8.85
2019-05-18T18:13:45.123Z,10.05
2019-05-18T18:16:20.781Z,11.05
2019-05-18T18:18:53.662Z,10.25
2019-05-18T18:21:26.768Z,12.70
2019-05-18T18:23:59.648Z,11.53
2019-05-18T18:26:32.794Z,11.18
2019-05-18T18:29:05.856Z,8.45
2019-05-18T18:31:38.777Z,7.42
2019-05-18T18:34:12.065Z,7.10
2019-05-18T18:36:45.423Z,7.28
2019-05-18T18:39:18.393Z,6.65
2019-05-18T18:41:51.314Z,7.05
2019-05-18T18:44:24.304Z,7.33
2019-05-18T18:46:57.173Z,11.28
2019-05-18T18:49:30.027Z,15.93
2019-05-18T18:52:02.949Z,16.40
2019-05-18T18:54:35.813Z,14.73
2019-05-18T18:57:08.723Z,14.25
2019-05-18T18:59:41.650Z,13.05
2019-05-18T19:02:14.530Z,11.35
2019-05-18T19:04:47.401Z,12.47
2019-05-18T19:07:20.387Z,15.32
2019-05-18T19:09:53.385Z,14.40
2019-05-18T19:12:26.288Z,12.65
2019-05-18T19:14:59.231Z,12.03
2019-05-18T19:17:32.282Z,12.93
2019-05-18T19:20:05.817Z,11.95
2019-05-18T19:22:38.854Z,11.25
2019-05-18T19:25:12.161Z,15.80
2019-05-18T19:27:54.579Z,26.65
2019-05-18T19:30:20.528Z,34.35
2019-05-18T19:32:53.323Z,33.73
2019-05-18T19:35:26.288Z,33.63
2019-05-18T19:37:59.221Z,40.40
2019-05-18T19:40:32.175Z,35.95
2019-05-18T19:43:06.169Z,28.25
2019-05-18T19:45:39.159Z,28.70
2019-05-18T19:48:12.078Z,26.75
2019-05-18T19:50:45.040Z,31.23
2019-05-18T19:53:18.055Z,25.55
2019-05-18T19:55:51.796Z,25.27
2019-05-18T19:58:24.849Z,18.90
2019-05-18T20:00:58.752Z,17.48
2019-05-18T20:03:33.025Z,16.10
2019-05-18T20:06:07.120Z,16.55
2019-05-18T20:08:39.963Z,15.78
2019-05-18T20:11:12.997Z,17.67
2019-05-18T20:13:45.998Z,20.43
2019-05-18T20:16:18.866Z,23.02
2019-05-18T20:18:51.770Z,23.60
2019-05-18T20:21:24.983Z,27.82
2019-05-18T20:23:58.219Z,37.25
2019-05-18T20:26:31.663Z,41.10
2019-05-18T20:29:05.601Z,45.73
2019-05-18T20:31:38.970Z,51.95
2019-05-18T20:34:11.854Z,42.25
2019-05-18T20:36:44.830Z,31.65
2019-05-18T20:39:17.947Z,27.37
2019-05-18T20:41:50.921Z,23.80
2019-05-18T20:44:23.984Z,22.87
2019-05-18T20:46:57.073Z,21.10
2019-05-18T20:49:29.966Z,21.68
2019-05-18T20:52:02.963Z,24.25
2019-05-18T20:54:35.998Z,22.62
2019-05-18T20:57:08.959Z,22.48
2019-05-18T20:59:41.869Z,20.17
2019-05-18T21:02:14.729Z,20.37
2019-05-18T21:04:47.775Z,21.62
2019-05-18T21:07:21.381Z,21.90
2019-05-18T21:09:54.242Z,23.50
2019-05-18T21:12:27.093Z,23.85
2019-05-18T21:15:00.072Z,26.70
2019-05-18T21:17:33.330Z,41.90
2019-05-18T21:20:06.981Z,38.48
2019-05-18T21:22:39.965Z,41.42
2019-05-18T21:25:13.370Z,33.45
2019-05-18T21:27:46.328Z,50.15
2019-05-18T21:30:20.304Z,50.80
2019-05-18T21:32:53.388Z,36.17
2019-05-18T21:35:26.453Z,26.62
2019-05-18T21:38:00.818Z,24.12
2019-05-18T21:40:33.754Z,21.80
2019-05-18T21:43:06.617Z,21.05
2019-05-18T21:45:39.610Z,20.37
2019-05-18T21:48:12.579Z,18.32
2019-05-18T21:50:45.520Z,18.37
2019-05-18T21:53:18.599Z,17.30
2019-05-18T21:55:51.653Z,20.15
2019-05-18T21:58:24.523Z,19.35
2019-05-18T22:00:57.451Z,19.98
2019-05-18T22:03:30.469Z,22.30
2019-05-18T22:06:03.609Z,21.12
2019-05-18T22:08:36.593Z,20.48
2019-05-18T22:11:09.487Z,24.55
2019-05-18T22:13:42.475Z,26.50
2019-05-18T22:16:15.391Z,23.62
2019-05-18T22:18:48.447Z,22.32
2019-05-18T22:21:21.343Z,26.80
2019-05-18T22:23:54.292Z,22.95
2019-05-18T22:26:27.175Z,21.90
2019-05-18T22:29:00.080Z,23.30
2019-05-18T22:31:33.233Z,22.67
2019-05-18T22:34:09.074Z,22.73
2019-05-18T22:36:41.987Z,21.60
2019-05-18T22:39:14.915Z,22.85
2019-05-18T22:41:47.918Z,22.50
2019-05-18T22:44:20.999Z,20.62
2019-05-18T22:46:54.031Z,24.63
2019-05-18T22:49:27.278Z,26.48
2019-05-18T22:52:00.107Z,26.00
2019-05-18T22:54:33.168Z,20.70
2019-05-18T22:57:06.382Z,21.17
2019-05-18T22:59:39.247Z,19.45
2019-05-18T23:02:12.619Z,19.82
2019-05-18T23:04:45.565Z,18.77
2019-05-18T23:07:18.498Z,20.75
2019-05-18T23:09:51.725Z,19.70
2019-05-18T23:12:24.818Z,19.25
2019-05-18T23:14:57.865Z,19.32
2019-05-18T23:17:30.791Z,19.45
2019-05-18T23:20:03.861Z,20.57
2019-05-18T23:22:36.976Z,23.70
2019-05-18T23:25:10.335Z,25.77
2019-05-18T23:27:43.326Z,25.50
2019-05-18T23:30:16.448Z,19.80
2019-05-18T23:32:50.665Z,19.70
2019-05-18T23:35:23.799Z,20.32
2019-05-18T23:37:56.910Z,22.60
2019-05-18T23:40:29.764Z,22.05
2019-05-18T23:43:02.680Z,22.60
2019-05-18T23:45:35.895Z,22.62
2019-05-18T23:48:08.884Z,21.87
2019-05-18T23:50:41.797Z,22.82
2019-05-18T23:53:14.596Z,25.32
2019-05-18T23:55:47.505Z,24.35
2019-05-18T23:58:20.370Z,23.98
